createdAt,value
2019-04-07T00:00:09.030Z,91.70
2019-04-07T00:02:37.674Z,91.50
2019-04-07T00:05:13.599Z,91.90
2019-04-07T00:07:37.884Z,91.80
2019-04-07T00:10:09.970Z,91.90
2019-04-07T00:12:38.789Z,92.20
2019-04-07T00:15:08.277Z,92.60
2019-04-07T00:17:37.614Z,92.40
2019-04-07T00:20:07.301Z,92.50
2019-04-07T00:22:36.039Z,92.40
2019-04-07T00:25:05.271Z,92.20
2019-04-07T00:27:34.820Z,92.40
2019-04-07T00:30:04.148Z,92.30
2019-04-07T00:32:32.834Z,92.30
2019-04-07T00:35:03.077Z,92.50
2019-04-07T00:37:32.755Z,92.70
2019-04-07T00:40:02.289Z,92.70
2019-04-07T00:42:31.111Z,92.60
2019-04-07T00:47:48.613Z,92.40
2019-04-07T00:50:17.496Z,92.40
2019-04-07T00:52:46.146Z,92.50
2019-04-07T00:55:14.789Z,92.70
2019-04-07T00:57:44.049Z,92.70
2019-04-07T01:00:16.568Z,92.60
2019-04-07T01:02:44.924Z,92.50
2019-04-07T01:05:13.821Z,92.40
2019-04-07T01:07:42.414Z,92.30
2019-04-07T01:10:11.690Z,92.10
2019-04-07T01:12:41.135Z,92.20
2019-04-07T01:15:11.015Z,92.30
2019-04-07T01:17:39.831Z,92.40
2019-04-07T01:20:09.675Z,92.60
2019-04-07T01:22:38.168Z,92.60
2019-04-07T01:25:08.823Z,92.80
2019-04-07T01:27:37.434Z,92.80
2019-04-07T01:30:07.183Z,93.10
2019-04-07T01:32:36.753Z,93.00
2019-04-07T01:35:07.482Z,93.10
2019-04-07T01:37:36.265Z,93.20
2019-04-07T01:40:06.513Z,93.30
2019-04-07T01:42:39.955Z,93.50
2019-04-07T01:45:16.021Z,93.50
2019-04-07T01:48:02.497Z,93.20
2019-04-07T01:50:32.791Z,92.50
2019-04-07T01:53:15.235Z,92.10
2019-04-07T01:55:54.222Z,91.90
2019-04-07T01:58:39.304Z,92.60
2019-04-07T02:01:12.203Z,93.20
2019-04-07T02:03:48.449Z,93.70
2019-04-07T02:06:22.107Z,93.60
2019-04-07T02:08:55.722Z,93.70
2019-04-07T02:11:32.467Z,94.40
2019-04-07T02:14:18.240Z,94.60
2019-04-07T02:16:57.808Z,95.20
2019-04-07T02:19:28.571Z,95.40
2019-04-07T02:22:13.632Z,95.40
2019-04-07T02:25:01.951Z,95.00
2019-04-07T02:27:44.689Z,95.10
2019-04-07T02:30:18.231Z,94.90
2019-04-07T02:32:48.462Z,94.90
2019-04-07T02:35:34.549Z,94.70
2019-04-07T02:38:08.283Z,94.50
2019-04-07T02:40:41.032Z,94.80
2019-04-07T02:43:27.699Z,95.40
2019-04-07T02:45:57.971Z,95.70
2019-04-07T02:48:28.473Z,95.50
2019-04-07T02:50:59.662Z,95.90
2019-04-07T02:53:30.851Z,96.00
2019-04-07T02:56:07.995Z,95.70
2019-04-07T02:58:54.966Z,95.50
2019-04-07T03:01:35.085Z,95.30
2019-04-07T03:04:22.952Z,95.10
2019-04-07T03:06:54.731Z,95.20
2019-04-07T03:09:32.153Z,95.00
2019-04-07T03:12:05.908Z,94.90
2019-04-07T03:14:37.121Z,94.90
2019-04-07T03:17:08.247Z,95.10
2019-04-07T03:19:56.695Z,95.10
2019-04-07T03:22:26.961Z,95.00
2019-04-07T03:25:13.324Z,95.00
2019-04-07T03:28:00.465Z,94.70
2019-04-07T03:30:49.433Z,94.80
2019-04-07T03:33:22.684Z,94.50
2019-04-07T03:36:01.164Z,94.10
2019-04-07T03:38:28.916Z,94.20
2019-04-07T03:40:59.158Z,93.60
2019-04-07T03:43:35.865Z,94.00
2019-04-07T03:46:06.400Z,94.10
2019-04-07T03:48:36.978Z,94.10
2019-04-07T03:51:24.416Z,94.10
2019-04-07T03:54:07.209Z,94.30
2019-04-07T03:56:37.767Z,94.10
2019-04-07T03:59:07.972Z,93.70
2019-04-07T04:01:47.883Z,93.50
2019-04-07T04:04:21.052Z,93.20
2019-04-07T04:06:57.902Z,93.00
2019-04-07T04:09:44.206Z,92.80
2019-04-07T04:12:29.988Z,92.40
2019-04-07T04:15:06.775Z,91.50
2019-04-07T04:17:35.491Z,90.70
2019-04-07T04:20:06.888Z,90.90
2019-04-07T04:22:35.940Z,91.80
2019-04-07T04:25:07.063Z,92.30
2019-04-07T04:27:36.764Z,92.80
2019-04-07T04:30:10.240Z,93.10
2019-04-07T04:32:39.529Z,92.90
2019-04-07T04:35:09.370Z,92.60
2019-04-07T04:37:46.022Z,92.60
2019-04-07T04:40:09.228Z,92.50
2019-04-07T04:42:38.208Z,94.10
2019-04-07T04:45:08.594Z,94.40
2019-04-07T04:47:37.672Z,94.10
2019-04-07T04:50:08.179Z,93.40
2019-04-07T04:52:38.201Z,94.30
2019-04-07T04:55:07.258Z,95.10
2019-04-07T04:57:36.288Z,95.40
2019-04-07T05:00:07.001Z,96.10
2019-04-07T05:02:35.892Z,96.70
2019-04-07T05:05:09.152Z,96.30
2019-04-07T05:07:49.827Z,95.80
2019-04-07T05:10:08.110Z,96.50
2019-04-07T05:12:37.004Z,96.50
2019-04-07T05:15:07.731Z,96.60
2019-04-07T05:17:36.948Z,96.50
2019-04-07T05:20:06.852Z,96.50
2019-04-07T05:22:35.951Z,96.60
2019-04-07T05:25:07.071Z,96.60
2019-04-07T05:27:35.612Z,96.70
2019-04-07T05:30:07.656Z,95.80
2019-04-07T05:32:36.849Z,95.00
2019-04-07T05:35:07.833Z,94.60
2019-04-07T05:37:36.673Z,95.00
2019-04-07T05:40:05.973Z,94.50
2019-04-07T05:42:34.478Z,94.50
2019-04-07T05:45:04.080Z,93.60
2019-04-07T05:47:33.033Z,93.00
2019-04-07T05:50:03.318Z,93.30
2019-04-07T05:52:33.532Z,92.80
2019-04-07T05:55:02.680Z,92.60
2019-04-07T05:57:34.604Z,93.10
2019-04-07T06:00:02.439Z,94.30
2019-04-07T06:02:33.936Z,94.30
2019-04-07T06:05:01.634Z,94.50
2019-04-07T06:07:31.788Z,94.30
2019-04-07T06:10:01.049Z,93.90
2019-04-07T06:12:29.646Z,94.40
2019-04-07T06:14:58.513Z,95.10
2019-04-07T06:17:27.713Z,95.00
2019-04-07T06:19:57.725Z,94.70
2019-04-07T06:22:26.291Z,95.00
2019-04-07T06:24:54.851Z,95.10
2019-04-07T06:27:24.005Z,95.20
2019-04-07T06:29:57.169Z,95.50
2019-04-07T06:32:24.623Z,95.80
2019-04-07T06:34:53.138Z,95.70
2019-04-07T06:37:25.858Z,95.30
2019-04-07T06:39:52.522Z,95.30
2019-04-07T06:42:22.042Z,95.20
2019-04-07T06:44:52.200Z,94.90
2019-04-07T06:47:22.714Z,95.00
2019-04-07T06:50:14.176Z,95.50
2019-04-07T06:52:45.751Z,95.10
2019-04-07T06:55:33.039Z,94.60
2019-04-07T06:58:19.745Z,94.10
2019-04-07T07:01:06.799Z,93.70
2019-04-07T07:03:39.644Z,92.70
2019-04-07T07:06:26.757Z,90.20
2019-04-07T07:09:07.250Z,88.90
2019-04-07T07:11:42.775Z,88.00
2019-04-07T07:14:35.432Z,87.10
2019-04-07T07:17:06.392Z,86.40
2019-04-07T07:19:42.398Z,87.70
2019-04-07T07:22:16.535Z,87.40
2019-04-07T07:24:47.125Z,87.50
2019-04-07T07:27:16.379Z,86.10
2019-04-07T07:29:46.768Z,84.50
2019-04-07T07:32:15.933Z,82.80
2019-04-07T07:34:44.910Z,83.30
2019-04-07T07:37:13.476Z,85.20
2019-04-07T07:39:44.651Z,89.70
2019-04-07T07:42:12.244Z,90.40
2019-04-07T07:44:40.757Z,90.20
2019-04-07T07:47:09.292Z,89.00
2019-04-07T07:49:40.974Z,90.00
2019-04-07T07:52:07.964Z,92.10
2019-04-07T07:54:36.831Z,94.20
2019-04-07T07:57:05.365Z,95.00
2019-04-07T07:59:37.889Z,95.00
2019-04-07T08:02:04.157Z,94.90
2019-04-07T08:04:33.398Z,95.30
2019-04-07T08:07:02.701Z,95.30
2019-04-07T08:09:31.784Z,94.00
2019-04-07T08:12:02.450Z,92.80
2019-04-07T08:14:31.514Z,92.50
2019-04-07T08:17:02.406Z,91.50
2019-04-07T08:19:30.862Z,90.80
2019-04-07T08:22:00.638Z,90.40
2019-04-07T08:24:29.515Z,90.20
2019-04-07T08:26:59.070Z,89.70
2019-04-07T08:29:28.117Z,86.90
2019-04-07T08:31:56.625Z,86.50
2019-04-07T08:34:25.492Z,88.90
2019-04-07T08:36:54.142Z,88.70
2019-04-07T08:39:25.623Z,87.00
2019-04-07T08:41:52.940Z,86.90
2019-04-07T08:44:21.574Z,84.50
2019-04-07T08:46:50.831Z,84.40
2019-04-07T08:49:23.606Z,83.80
2019-04-07T08:51:50.550Z,85.10
2019-04-07T08:54:19.887Z,84.00
2019-04-07T08:56:48.680Z,82.10
2019-04-07T08:59:17.313Z,81.60
2019-04-07T09:01:46.962Z,81.70
2019-04-07T09:04:17.626Z,79.70
2019-04-07T09:06:47.452Z,77.70
2019-04-07T09:09:16.867Z,75.20
2019-04-07T09:11:45.950Z,74.00
2019-04-07T09:14:15.956Z,73.20
2019-04-07T09:17:03.383Z,74.80
2019-04-07T09:19:39.783Z,73.10
2019-04-07T09:22:29.830Z,74.20
2019-04-07T09:25:03.463Z,73.50
2019-04-07T09:27:50.354Z,73.30
2019-04-07T09:30:37.931Z,74.90
2019-04-07T09:33:24.276Z,71.80
2019-04-07T09:36:03.562Z,74.70
2019-04-07T09:38:36.829Z,72.00
2019-04-07T09:41:17.188Z,72.90
2019-04-07T09:43:50.745Z,70.40
2019-04-07T09:46:24.201Z,71.10
2019-04-07T09:49:11.075Z,69.00
2019-04-07T09:51:41.604Z,71.20
2019-04-07T09:54:12.244Z,72.10
2019-04-07T09:56:48.649Z,74.90
2019-04-07T09:59:30.821Z,74.60
2019-04-07T10:02:17.002Z,72.80
2019-04-07T10:04:55.863Z,69.60
2019-04-07T10:07:34.886Z,71.40
2019-04-07T10:10:22.670Z,72.60
2019-04-07T10:12:56.603Z,72.40
2019-04-07T10:15:42.013Z,71.00
2019-04-07T10:18:18.073Z,68.70
2019-04-07T10:20:53.883Z,68.80
2019-04-07T10:23:24.208Z,70.70
2019-04-07T10:25:54.937Z,69.30
2019-04-07T10:28:25.575Z,71.30
2019-04-07T10:31:13.787Z,71.50
2019-04-07T10:33:58.746Z,71.20
2019-04-07T10:36:38.697Z,69.10
2019-04-07T10:39:13.017Z,73.60
2019-04-07T10:42:00.304Z,73.50
2019-04-07T10:44:36.709Z,70.10
2019-04-07T10:47:19.423Z,73.30
2019-04-07T10:50:08.506Z,71.30
2019-04-07T10:52:53.334Z,73.50
2019-04-07T10:55:29.299Z,71.00
2019-04-07T10:57:59.789Z,76.50
2019-04-07T11:00:45.471Z,69.80
2019-04-07T11:03:31.986Z,67.60
2019-04-07T11:06:05.176Z,64.60
2019-04-07T11:08:35.623Z,62.60
2019-04-07T11:11:21.384Z,64.70
2019-04-07T11:14:09.745Z,66.20
2019-04-07T11:16:56.216Z,63.90
2019-04-07T11:19:44.587Z,63.30
2019-04-07T11:22:30.920Z,64.90
2019-04-07T11:25:04.123Z,64.30
2019-04-07T11:27:40.877Z,65.40
2019-04-07T11:30:21.273Z,67.30
2019-04-07T11:32:54.437Z,63.00
2019-04-07T11:35:29.888Z,60.30
2019-04-07T11:38:15.514Z,58.10
2019-04-07T11:40:51.017Z,58.00
2019-04-07T11:43:20.815Z,57.30
2019-04-07T11:46:07.223Z,58.90
2019-04-07T11:48:37.340Z,60.40
2019-04-07T11:51:22.763Z,64.70
2019-04-07T11:53:58.864Z,57.40
2019-04-07T11:56:45.938Z,59.90
2019-04-07T11:59:26.338Z,54.60
2019-04-07T12:01:56.704Z,53.20
2019-04-07T12:04:45.143Z,53.50
2019-04-07T12:07:20.237Z,55.10
2019-04-07T12:10:02.967Z,57.30
2019-04-07T12:12:51.467Z,57.90
2019-04-07T12:15:30.578Z,54.70
2019-04-07T12:18:00.783Z,53.10
2019-04-07T12:20:33.715Z,55.90
2019-04-07T12:23:20.383Z,55.90
2019-04-07T12:26:06.179Z,54.30
2019-04-07T12:28:52.507Z,54.60
2019-04-07T12:31:28.157Z,53.70
2019-04-07T12:34:13.872Z,54.70
2019-04-07T12:36:47.911Z,49.70
2019-04-07T12:39:21.207Z,48.10
2019-04-07T12:42:08.546Z,46.50
2019-04-07T12:44:39.896Z,51.50
2019-04-07T12:47:11.347Z,65.50
2019-04-07T12:49:50.289Z,60.60
2019-04-07T12:52:36.692Z,56.10
2019-04-07T12:55:17.814Z,54.10
2019-04-07T12:57:55.523Z,54.40
2019-04-07T13:00:28.884Z,56.30
2019-04-07T13:03:07.916Z,54.40
2019-04-07T13:05:38.043Z,59.70
2019-04-07T13:08:11.171Z,57.00
2019-04-07T13:10:44.872Z,57.20
2019-04-07T13:13:15.942Z,57.60
2019-04-07T13:15:52.196Z,55.30
2019-04-07T13:18:25.438Z,54.90
2019-04-07T13:21:04.425Z,57.90
2019-04-07T13:23:40.581Z,57.40
2019-04-07T13:26:11.040Z,57.30
2019-04-07T13:28:53.217Z,60.50
2019-04-07T13:31:24.454Z,59.80
2019-04-07T13:33:59.592Z,59.60
2019-04-07T13:36:26.818Z,59.60
2019-04-07T13:38:57.813Z,60.60
2019-04-07T13:41:38.607Z,59.70
2019-04-07T13:44:11.898Z,60.40
2019-04-07T13:46:45.226Z,60.20
2019-04-07T13:49:32.239Z,60.50
2019-04-07T13:52:19.321Z,62.40
2019-04-07T13:54:53.713Z,64.60
2019-04-07T13:57:29.694Z,63.40
2019-04-07T14:00:12.870Z,63.80
2019-04-07T14:02:46.476Z,64.80
2019-04-07T14:05:34.666Z,65.10
2019-04-07T14:08:07.086Z,63.20
2019-04-07T14:10:53.961Z,63.30
2019-04-07T14:13:27.072Z,62.90
2019-04-07T14:16:15.908Z,65.40
2019-04-07T14:18:50.271Z,64.60
2019-04-07T14:21:37.432Z,65.30
2019-04-07T14:24:23.915Z,64.30
2019-04-07T14:27:05.438Z,61.90
2019-04-07T14:29:52.430Z,61.50
2019-04-07T14:32:23.121Z,62.10
2019-04-07T14:35:10.445Z,63.70
2019-04-07T14:37:52.753Z,65.90
2019-04-07T14:40:26.250Z,67.60
2019-04-07T14:43:02.553Z,65.80
2019-04-07T14:45:42.798Z,66.70
2019-04-07T14:48:17.382Z,64.80
2019-04-07T14:50:50.603Z,64.00
2019-04-07T14:53:23.578Z,64.30
2019-04-07T14:55:53.771Z,64.50
2019-04-07T14:58:39.383Z,61.80
2019-04-07T15:01:25.839Z,62.00
2019-04-07T15:03:54.606Z,58.80
2019-04-07T15:06:23.937Z,61.30
2019-04-07T15:08:55.277Z,61.70
2019-04-07T15:11:32.350Z,65.40
2019-04-07T15:14:01.854Z,66.50
2019-04-07T15:16:31.736Z,66.90
2019-04-07T15:19:01.054Z,68.10
2019-04-07T15:21:29.878Z,69.70
2019-04-07T15:24:04.074Z,71.60
2019-04-07T15:26:32.544Z,71.90
2019-04-07T15:29:04.653Z,73.70
2019-04-07T15:31:31.997Z,75.30
2019-04-07T15:34:01.021Z,75.90
2019-04-07T15:36:31.118Z,77.00
2019-04-07T15:38:59.705Z,77.40
2019-04-07T15:41:28.407Z,76.60
2019-04-07T15:43:57.313Z,77.00
2019-04-07T15:46:26.765Z,78.10
2019-04-07T15:48:56.889Z,78.10
2019-04-07T15:51:26.220Z,78.90
2019-04-07T15:53:55.395Z,80.10
2019-04-07T15:56:24.178Z,81.10
2019-04-07T15:58:52.992Z,81.20
2019-04-07T16:01:21.731Z,82.00
2019-04-07T16:03:53.430Z,81.10
2019-04-07T16:06:21.351Z,81.30
2019-04-07T16:08:49.857Z,82.50
2019-04-07T16:11:19.011Z,82.00
2019-04-07T16:13:47.944Z,82.70
2019-04-07T16:16:16.551Z,82.00
2019-04-07T16:18:45.495Z,81.80
2019-04-07T16:21:14.390Z,81.90
2019-04-07T16:23:43.297Z,82.50
2019-04-07T16:26:11.898Z,82.50
2019-04-07T16:28:43.267Z,82.40
2019-04-07T16:31:10.646Z,82.50
2019-04-07T16:33:39.790Z,83.40
2019-04-07T16:36:08.776Z,83.60
2019-04-07T16:38:37.340Z,84.90
2019-04-07T16:41:06.602Z,86.40
2019-04-07T16:43:37.676Z,87.10
2019-04-07T16:46:05.607Z,87.20
2019-04-07T16:48:38.645Z,88.20
2019-04-07T16:51:04.450Z,87.90
2019-04-07T16:53:36.427Z,88.40
2019-04-07T16:56:04.029Z,89.00
2019-04-07T16:58:35.408Z,88.90
2019-04-07T17:01:03.217Z,89.10
2019-04-07T17:03:31.691Z,90.10
2019-04-07T17:06:01.668Z,90.50
2019-04-07T17:08:30.440Z,90.80
2019-04-07T17:10:59.549Z,90.80
2019-04-07T17:13:37.041Z,90.70
2019-04-07T17:15:59.401Z,90.60
2019-04-07T17:18:39.450Z,90.80
2019-04-07T17:21:16.629Z,90.90
2019-04-07T17:23:45.750Z,91.10
2019-04-07T17:26:14.594Z,91.50
2019-04-07T17:28:45.999Z,91.70
2019-04-07T17:31:14.259Z,92.30
2019-04-07T17:33:42.900Z,92.30
2019-04-07T17:36:15.456Z,92.10
2019-04-07T17:38:59.412Z,92.00
2019-04-07T17:41:31.483Z,92.10
2019-04-07T17:44:21.871Z,92.00
2019-04-07T17:47:05.789Z,92.00
2019-04-07T17:49:50.954Z,92.40
2019-04-07T17:52:22.056Z,92.40
2019-04-07T17:55:04.298Z,92.50
2019-04-07T17:57:37.371Z,92.50
2019-04-07T18:00:11.746Z,92.40
2019-04-07T18:02:47.662Z,92.40
2019-04-07T18:05:14.794Z,92.50
2019-04-07T18:07:54.345Z,92.70
2019-04-07T18:10:40.889Z,92.80
2019-04-07T18:13:11.935Z,93.00
2019-04-07T18:15:42.405Z,93.20
2019-04-07T18:18:13.280Z,93.30
2019-04-07T18:20:59.690Z,93.10
2019-04-07T18:23:39.678Z,92.80
2019-04-07T18:26:16.523Z,92.80
2019-04-07T18:29:03.796Z,92.60
2019-04-07T18:31:40.061Z,93.00
2019-04-07T18:34:08.812Z,92.90
2019-04-07T18:36:42.049Z,93.00
2019-04-07T18:39:18.602Z,93.00
2019-04-07T18:41:49.406Z,93.10
2019-04-07T18:44:22.915Z,93.20
2019-04-07T18:47:08.963Z,93.30
2019-04-07T18:49:48.448Z,93.10
2019-04-07T18:52:22.291Z,93.20
2019-04-07T18:54:51.084Z,93.20
2019-04-07T18:57:27.059Z,93.10
2019-04-07T19:00:13.593Z,93.10
2019-04-07T19:02:45.985Z,93.10
2019-04-07T19:05:34.274Z,93.10
2019-04-07T19:08:04.626Z,93.10
2019-04-07T19:10:51.558Z,93.80
2019-04-07T19:13:33.529Z,93.60
2019-04-07T19:16:04.067Z,93.50
2019-04-07T19:18:49.641Z,93.40
2019-04-07T19:21:20.432Z,93.30
2019-04-07T19:24:10.322Z,93.60
2019-04-07T19:26:44.374Z,94.10
2019-04-07T19:29:25.076Z,95.10
2019-04-07T19:31:59.714Z,95.60
2019-04-07T19:34:47.179Z,95.60
2019-04-07T19:37:19.339Z,95.70
2019-04-07T19:40:02.714Z,96.00
2019-04-07T19:42:48.174Z,95.90
2019-04-07T19:45:17.598Z,95.60
2019-04-07T19:48:13.240Z,95.40
2019-04-07T19:50:46.143Z,95.10
2019-04-07T19:53:20.255Z,95.20
2019-04-07T19:55:58.157Z,95.20
2019-04-07T19:58:44.925Z,95.30
2019-04-07T20:01:30.113Z,95.10
2019-04-07T20:04:16.670Z,94.90
2019-04-07T20:06:46.778Z,94.80
2019-04-07T20:09:26.145Z,94.50
2019-04-07T20:12:12.856Z,94.40
2019-04-07T20:14:51.985Z,94.30
2019-04-07T20:17:30.790Z,94.30
2019-04-07T20:20:13.637Z,94.30
2019-04-07T20:23:00.347Z,94.70
2019-04-07T20:25:46.988Z,94.80
2019-04-07T20:28:15.271Z,94.60
2019-04-07T20:31:03.769Z,94.40
2019-04-07T20:33:52.183Z,94.10
2019-04-07T20:36:26.437Z,94.30
2019-04-07T20:39:09.358Z,94.30
2019-04-07T20:41:56.793Z,94.30
2019-04-07T20:44:36.619Z,94.10
2019-04-07T20:47:07.900Z,93.90
2019-04-07T20:49:41.841Z,94.30
2019-04-07T20:52:16.673Z,93.90
2019-04-07T20:54:50.904Z,93.90
2019-04-07T20:57:27.291Z,93.90
2019-04-07T21:00:03.574Z,94.00
2019-04-07T21:03:06.465Z,93.90
2019-04-07T21:05:23.997Z,94.00
2019-04-07T21:07:54.836Z,93.50
2019-04-07T21:10:30.994Z,93.70
2019-04-07T21:13:18.307Z,93.60
2019-04-07T21:15:55.348Z,93.70
2019-04-07T21:18:31.350Z,93.80
2019-04-07T21:21:03.178Z,94.30
2019-04-07T21:23:50.874Z,94.30
2019-04-07T21:26:21.287Z,94.80
2019-04-07T21:29:08.156Z,94.80
2019-04-07T21:31:38.280Z,94.50
2019-04-07T21:34:08.852Z,94.70
2019-04-07T21:36:41.126Z,95.10
2019-04-07T21:39:12.753Z,95.00
2019-04-07T21:41:52.108Z,95.10
2019-04-07T21:44:38.499Z,95.00
2019-04-07T21:47:12.147Z,95.00
2019-04-07T21:49:58.553Z,95.10
2019-04-07T21:52:34.593Z,95.30
2019-04-07T21:55:23.661Z,95.90
2019-04-07T21:58:03.115Z,96.50
2019-04-07T22:00:52.991Z,96.80
2019-04-07T22:03:39.537Z,96.70
2019-04-07T22:06:17.760Z,96.50
2019-04-07T22:08:53.958Z,96.40
2019-04-07T22:11:26.687Z,96.00
2019-04-07T22:13:53.391Z,95.90
2019-04-07T22:16:24.200Z,96.00
2019-04-07T22:18:53.269Z,95.70
2019-04-07T22:21:23.235Z,95.80
2019-04-07T22:23:52.306Z,95.80
2019-04-07T22:26:20.796Z,95.80
2019-04-07T22:28:49.425Z,95.30
2019-04-07T22:31:19.586Z,95.30
2019-04-07T22:33:48.052Z,95.20
2019-04-07T22:36:16.748Z,95.00
2019-04-07T22:38:45.563Z,95.10
2019-04-07T22:41:14.449Z,95.20
2019-04-07T22:43:43.458Z,94.90
2019-04-07T22:46:17.577Z,94.90
2019-04-07T22:48:42.246Z,94.70
2019-04-07T22:51:12.487Z,95.00
2019-04-07T22:53:41.307Z,95.30
2019-04-07T22:56:10.053Z,95.90
2019-04-07T22:58:38.551Z,95.50
2019-04-07T23:01:07.760Z,95.30
2019-04-07T23:03:36.966Z,95.10
2019-04-07T23:06:05.817Z,94.90
2019-04-07T23:08:35.035Z,95.20
2019-04-07T23:11:04.298Z,94.70
2019-04-07T23:13:33.074Z,94.50
2019-04-07T23:16:10.754Z,94.30
2019-04-07T23:18:31.816Z,94.00
2019-04-07T23:21:01.118Z,94.00
2019-04-07T23:23:30.921Z,94.10
2019-04-07T23:25:59.865Z,94.30
2019-04-07T23:28:28.777Z,94.50
2019-04-07T23:30:57.571Z,94.30
2019-04-07T23:33:26.134Z,94.30
2019-04-07T23:35:55.422Z,94.30
2019-04-07T23:38:24.288Z,94.40
2019-04-07T23:40:53.530Z,94.40
2019-04-07T23:43:22.135Z,94.30
2019-04-07T23:45:51.806Z,94.40
2019-04-07T23:48:20.274Z,94.60
2019-04-07T23:50:48.760Z,94.80
2019-04-07T23:53:53.826Z,94.60
2019-04-07T23:56:22.290Z,94.90
2019-04-07T23:58:50.758Z,94.90
